sensor_id;sensor_type;location;lat;lon;timestamp;temperature;humidity
13998;DHT22;7074;51.508;7.018;2024-03-23T06:22:05;8.60;99.90
13998;DHT22;7074;51.508;7.018;2024-03-23T06:24:38;8.60;99.90
13998;DHT22;7074;51.508;7.018;2024-03-23T06:27:05;8.70;99.90
13998;DHT22;7074;51.508;7.018;2024-03-23T06:29:32;8.70;99.90
13998;DHT22;7074;51.508;7.018;2024-03-23T06:31:58;8.70;99.90
13998;DHT22;7074;51.508;7.018;2024-03-23T06:34:26;8.80;99.90
13998;DHT22;7074;51.508;7.018;2024-03-23T06:36:53;8.80;99.90
13998;DHT22;7074;51.508;7.018;2024-03-23T06:39:21;8.80;99.90
13998;DHT22;7074;51.508;7.018;2024-03-23T06:41:52;8.80;99.90
13998;DHT22;7074;51.508;7.018;2024-03-23T06:44:21;8.80;99.90
13998;DHT22;7074;51.508;7.018;2024-03-23T06:46:47;8.80;99.90
13998;DHT22;7074;51.508;7.018;2024-03-23T06:49:17;8.80;99.90
13998;DHT22;7074;51.508;7.018;2024-03-23T08:02:29;10.00;99.90
13998;DHT22;7074;51.508;7.018;2024-03-23T08:04:58;10.10;99.90
13998;DHT22;7074;51.508;7.018;2024-03-23T08:07:26;10.10;99.90
13998;DHT22;7074;51.508;7.018;2024-03-23T08:09:57;10.20;99.90
13998;DHT22;7074;51.508;7.018;2024-03-23T08:12:27;10.30;99.90
13998;DHT22;7074;51.508;7.018;2024-03-23T10:06:56;11.00;99.90
13998;DHT22;7074;51.508;7.018;2024-03-23T10:09:39;11.20;99.90
13998;DHT22;7074;51.508;7.018;2024-03-23T10:12:17;11.20;99.90
13998;DHT22;7074;51.508;7.018;2024-03-23T10:18:23;11.90;99.90
13998;DHT22;7074;51.508;7.018;2024-03-23T10:21:10;12.00;99.90
13998;DHT22;7074;51.508;7.018;2024-03-23T10:23:42;11.70;99.90
13998;DHT22;7074;51.508;7.018;2024-03-23T10:26:22;11.50;99.90
13998;DHT22;7074;51.508;7.018;2024-03-23T10:28:55;11.40;99.90
13998;DHT22;7074;51.508;7.018;2024-03-23T10:31:34;11.30;99.90
13998;DHT22;7074;51.508;7.018;2024-03-23T10:34:07;11.40;99.90
13998;DHT22;7074;51.508;7.018;2024-03-23T10:41:01;11.50;98.80
13998;DHT22;7074;51.508;7.018;2024-03-23T10:43:48;11.20;97.10
13998;DHT22;7074;51.508;7.018;2024-03-23T10:46:15;11.10;96.60
13998;DHT22;7074;51.508;7.018;2024-03-23T10:48:44;11.00;97.90
13998;DHT22;7074;51.508;7.018;2024-03-23T10:51:14;11.00;96.90
13998;DHT22;7074;51.508;7.018;2024-03-23T10:53:45;10.90;97.90
13998;DHT22;7074;51.508;7.018;2024-03-23T10:56:15;10.80;99.40
13998;DHT22;7074;51.508;7.018;2024-03-23T10:58:47;10.60;99.90
13998;DHT22;7074;51.508;7.018;2024-03-23T11:01:18;10.20;99.90
13998;DHT22;7074;51.508;7.018;2024-03-23T11:03:51;9.90;99.90
13998;DHT22;7074;51.508;7.018;2024-03-23T11:06:37;9.80;99.90
13998;DHT22;7074;51.508;7.018;2024-03-23T11:09:38;9.60;99.90
13998;DHT22;7074;51.508;7.018;2024-03-23T11:12:28;9.60;99.90
13998;DHT22;7074;51.508;7.018;2024-03-23T11:15:00;9.60;99.90
13998;DHT22;7074;51.508;7.018;2024-03-23T11:17:28;9.60;99.90
13998;DHT22;7074;51.508;7.018;2024-03-23T11:20:01;9.70;99.90
13998;DHT22;7074;51.508;7.018;2024-03-23T11:22:45;9.90;99.90
13998;DHT22;7074;51.508;7.018;2024-03-23T11:25:17;10.30;99.90
13998;DHT22;7074;51.508;7.018;2024-03-23T11:27:46;10.40;99.90
13998;DHT22;7074;51.508;7.018;2024-03-23T11:30:15;10.90;99.90
13998;DHT22;7074;51.508;7.018;2024-03-23T11:32:43;10.80;99.90
13998;DHT22;7074;51.508;7.018;2024-03-23T11:35:10;10.70;99.90
13998;DHT22;7074;51.508;7.018;2024-03-23T11:37:37;10.90;99.90
13998;DHT22;7074;51.508;7.018;2024-03-23T11:40:18;11.20;99.90
13998;DHT22;7074;51.508;7.018;2024-03-23T11:42:45;11.40;99.90
13998;DHT22;7074;51.508;7.018;2024-03-23T11:45:13;11.40;99.90
13998;DHT22;7074;51.508;7.018;2024-03-23T11:47:44;11.40;99.90
13998;DHT22;7074;51.508;7.018;2024-03-23T11:50:19;11.50;99.90
13998;DHT22;7074;51.508;7.018;2024-03-23T11:52:45;11.50;99.90
13998;DHT22;7074;51.508;7.018;2024-03-23T11:55:13;11.80;99.90
13998;DHT22;7074;51.508;7.018;2024-03-23T11:57:39;11.80;99.90
13998;DHT22;7074;51.508;7.018;2024-03-23T12:00:23;11.90;99.90
13998;DHT22;7074;51.508;7.018;2024-03-23T12:03:00;11.90;99.90
13998;DHT22;7074;51.508;7.018;2024-03-23T12:06:08;11.70;99.90
13998;DHT22;7074;51.508;7.018;2024-03-23T12:08:57;11.80;99.90
13998;DHT22;7074;51.508;7.018;2024-03-23T12:11:52;11.90;99.90
13998;DHT22;7074;51.508;7.018;2024-03-23T12:14:24;11.90;98.60
13998;DHT22;7074;51.508;7.018;2024-03-23T12:16:55;11.90;97.20
13998;DHT22;7074;51.508;7.018;2024-03-23T12:19:27;11.50;94.90
13998;DHT22;7074;51.508;7.018;2024-03-23T12:21:53;11.30;95.10
13998;DHT22;7074;51.508;7.018;2024-03-23T12:24:27;11.20;96.00
13998;DHT22;7074;51.508;7.018;2024-03-23T12:26:54;11.10;95.90
13998;DHT22;7074;51.508;7.018;2024-03-23T12:29:23;11.10;95.80
13998;DHT22;7074;51.508;7.018;2024-03-23T12:31:51;11.20;95.30
13998;DHT22;7074;51.508;7.018;2024-03-23T12:34:22;11.10;95.90
13998;DHT22;7074;51.508;7.018;2024-03-23T12:36:51;11.20;95.50
13998;DHT22;7074;51.508;7.018;2024-03-23T12:39:20;11.10;96.90
13998;DHT22;7074;51.508;7.018;2024-03-23T12:41:47;11.10;98.50
13998;DHT22;7074;51.508;7.018;2024-03-23T12:44:25;11.10;99.30
13998;DHT22;7074;51.508;7.018;2024-03-23T12:46:55;11.40;98.30
13998;DHT22;7074;51.508;7.018;2024-03-23T12:49:21;11.40;99.10
13998;DHT22;7074;51.508;7.018;2024-03-23T12:51:54;11.60;99.90
13998;DHT22;7074;51.508;7.018;2024-03-23T12:54:21;11.70;99.90
13998;DHT22;7074;51.508;7.018;2024-03-23T12:56:49;11.40;99.90
13998;DHT22;7074;51.508;7.018;2024-03-23T12:59:18;11.50;99.90
13998;DHT22;7074;51.508;7.018;2024-03-23T13:01:56;11.40;99.30
13998;DHT22;7074;51.508;7.018;2024-03-23T13:04:26;11.10;99.40
13998;DHT22;7074;51.508;7.018;2024-03-23T13:06:54;11.00;99.90
13998;DHT22;7074;51.508;7.018;2024-03-23T13:09:23;10.80;99.90
13998;DHT22;7074;51.508;7.018;2024-03-23T13:11:53;10.50;99.90
13998;DHT22;7074;51.508;7.018;2024-03-23T13:14:20;10.20;99.90
13998;DHT22;7074;51.508;7.018;2024-03-23T13:16:48;9.90;99.90
13998;DHT22;7074;51.508;7.018;2024-03-23T13:19:19;9.80;99.90
13998;DHT22;7074;51.508;7.018;2024-03-23T13:21:49;9.60;99.90
13998;DHT22;7074;51.508;7.018;2024-03-23T13:24:15;9.60;99.90
13998;DHT22;7074;51.508;7.018;2024-03-23T13:26:43;9.70;99.90
13998;DHT22;7074;51.508;7.018;2024-03-23T13:29:09;9.60;99.90
13998;DHT22;7074;51.508;7.018;2024-03-23T13:31:36;9.60;99.90
13998;DHT22;7074;51.508;7.018;2024-03-23T13:34:03;9.70;99.90
13998;DHT22;7074;51.508;7.018;2024-03-23T13:36:31;9.70;99.90
13998;DHT22;7074;51.508;7.018;2024-03-23T13:38:58;9.50;99.90
13998;DHT22;7074;51.508;7.018;2024-03-23T13:41:27;9.50;99.90
13998;DHT22;7074;51.508;7.018;2024-03-23T13:43:59;9.50;99.90
13998;DHT22;7074;51.508;7.018;2024-03-23T13:46:42;9.50;99.90
13998;DHT22;7074;51.508;7.018;2024-03-23T13:49:33;9.40;99.90
13998;DHT22;7074;51.508;7.018;2024-03-23T13:52:25;9.20;99.90
13998;DHT22;7074;51.508;7.018;2024-03-23T14:01:37;9.30;99.90
13998;DHT22;7074;51.508;7.018;2024-03-23T14:04:04;9.30;99.90
13998;DHT22;7074;51.508;7.018;2024-03-23T14:06:30;9.50;99.90
13998;DHT22;7074;51.508;7.018;2024-03-23T14:08:59;9.70;99.90
13998;DHT22;7074;51.508;7.018;2024-03-23T14:11:33;9.90;99.90
13998;DHT22;7074;51.508;7.018;2024-03-23T14:16:53;10.20;99.90
13998;DHT22;7074;51.508;7.018;2024-03-23T14:19:19;10.30;99.90
13998;DHT22;7074;51.508;7.018;2024-03-23T14:21:47;10.50;99.90
13998;DHT22;7074;51.508;7.018;2024-03-23T14:24:14;10.50;99.90
13998;DHT22;7074;51.508;7.018;2024-03-23T14:26:42;10.60;99.90
13998;DHT22;7074;51.508;7.018;2024-03-23T14:29:09;10.70;99.90
13998;DHT22;7074;51.508;7.018;2024-03-23T14:31:36;10.90;99.90
13998;DHT22;7074;51.508;7.018;2024-03-23T14:34:03;10.90;99.90
13998;DHT22;7074;51.508;7.018;2024-03-23T14:36:30;10.90;99.90
13998;DHT22;7074;51.508;7.018;2024-03-23T14:38:56;10.80;99.90
13998;DHT22;7074;51.508;7.018;2024-03-23T14:41:25;10.70;99.90
13998;DHT22;7074;51.508;7.018;2024-03-23T14:43:51;10.60;99.90
13998;DHT22;7074;51.508;7.018;2024-03-23T14:46:20;10.60;99.90
13998;DHT22;7074;51.508;7.018;2024-03-23T14:48:46;10.70;99.90
13998;DHT22;7074;51.508;7.018;2024-03-23T14:51:14;10.70;99.90
13998;DHT22;7074;51.508;7.018;2024-03-23T14:53:41;10.80;99.90
13998;DHT22;7074;51.508;7.018;2024-03-23T14:56:16;10.80;99.90
13998;DHT22;7074;51.508;7.018;2024-03-23T14:58:58;10.90;99.90
13998;DHT22;7074;51.508;7.018;2024-03-23T15:01:30;10.90;99.90
13998;DHT22;7074;51.508;7.018;2024-03-23T15:03:57;10.80;99.90
13998;DHT22;7074;51.508;7.018;2024-03-23T15:06:28;10.70;99.40
13998;DHT22;7074;51.508;7.018;2024-03-23T15:08:58;10.60;98.70
13998;DHT22;7074;51.508;7.018;2024-03-23T15:11:28;10.60;99.70
13998;DHT22;7074;51.508;7.018;2024-03-23T15:14:14;10.60;99.90
13998;DHT22;7074;51.508;7.018;2024-03-23T15:17:06;10.50;98.80
13998;DHT22;7074;51.508;7.018;2024-03-23T15:19:49;10.50;98.60
13998;DHT22;7074;51.508;7.018;2024-03-23T15:22:19;10.50;98.50
13998;DHT22;7074;51.508;7.018;2024-03-23T15:24:48;10.70;97.70
13998;DHT22;7074;51.508;7.018;2024-03-23T15:27:15;10.80;98.60
13998;DHT22;7074;51.508;7.018;2024-03-23T15:30:16;10.80;97.90
13998;DHT22;7074;51.508;7.018;2024-03-23T15:32:44;10.90;98.00
13998;DHT22;7074;51.508;7.018;2024-03-23T15:35:13;10.80;97.50
13998;DHT22;7074;51.508;7.018;2024-03-23T15:37:41;10.80;97.70
13998;DHT22;7074;51.508;7.018;2024-03-23T15:40:11;10.90;98.30
13998;DHT22;7074;51.508;7.018;2024-03-23T15:42:41;10.90;98.30
13998;DHT22;7074;51.508;7.018;2024-03-23T15:45:09;10.90;98.30
13998;DHT22;7074;51.508;7.018;2024-03-23T15:47:42;11.00;98.30
13998;DHT22;7074;51.508;7.018;2024-03-23T15:50:35;11.00;98.40
13998;DHT22;7074;51.508;7.018;2024-03-23T15:53:03;11.00;98.00
13998;DHT22;7074;51.508;7.018;2024-03-23T15:55:32;10.80;98.10
13998;DHT22;7074;51.508;7.018;2024-03-23T15:58:02;10.70;98.20
13998;DHT22;7074;51.508;7.018;2024-03-23T16:00:30;10.80;98.70
13998;DHT22;7074;51.508;7.018;2024-03-23T16:02:58;10.80;98.80
13998;DHT22;7074;51.508;7.018;2024-03-23T16:05:24;10.80;98.30
13998;DHT22;7074;51.508;7.018;2024-03-23T16:07:55;10.80;98.60
13998;DHT22;7074;51.508;7.018;2024-03-23T16:10:22;10.70;98.70
13998;DHT22;7074;51.508;7.018;2024-03-23T16:13:07;10.80;99.40
13998;DHT22;7074;51.508;7.018;2024-03-23T16:15:36;10.70;98.40
13998;DHT22;7074;51.508;7.018;2024-03-23T16:18:06;10.60;98.30
13998;DHT22;7074;51.508;7.018;2024-03-23T16:20:51;10.70;98.30
13998;DHT22;7074;51.508;7.018;2024-03-23T16:23:39;10.60;98.00
13998;DHT22;7074;51.508;7.018;2024-03-23T16:30:31;10.40;98.90
13998;DHT22;7074;51.508;7.018;2024-03-23T16:33:20;10.30;99.00
13998;DHT22;7074;51.508;7.018;2024-03-23T16:36:00;10.30;98.60
13998;DHT22;7074;51.508;7.018;2024-03-23T16:38:41;10.30;99.50
13998;DHT22;7074;51.508;7.018;2024-03-23T16:41:09;10.30;99.10
13998;DHT22;7074;51.508;7.018;2024-03-23T16:43:44;10.10;99.10
13998;DHT22;7074;51.508;7.018;2024-03-23T16:46:23;10.20;98.80
13998;DHT22;7074;51.508;7.018;2024-03-23T16:53:06;10.00;99.00
13998;DHT22;7074;51.508;7.018;2024-03-23T16:56:47;10.00;99.40
13998;DHT22;7074;51.508;7.018;2024-03-23T17:00:07;9.90;99.90
13998;DHT22;7074;51.508;7.018;2024-03-23T17:02:38;9.90;99.90
13998;DHT22;7074;51.508;7.018;2024-03-23T17:05:11;9.70;99.90
13998;DHT22;7074;51.508;7.018;2024-03-23T17:08:03;9.30;99.90
13998;DHT22;7074;51.508;7.018;2024-03-23T17:10:44;9.30;99.90
13998;DHT22;7074;51.508;7.018;2024-03-23T17:14:04;9.30;99.90
13998;DHT22;7074;51.508;7.018;2024-03-23T17:17:12;8.90;99.90
13998;DHT22;7074;51.508;7.018;2024-03-23T17:20:34;8.50;99.90
13998;DHT22;7074;51.508;7.018;2024-03-23T17:23:38;8.30;99.90
13998;DHT22;7074;51.508;7.018;2024-03-23T17:26:10;8.20;99.90
13998;DHT22;7074;51.508;7.018;2024-03-23T17:29:03;8.20;99.90
13998;DHT22;7074;51.508;7.018;2024-03-23T17:31:50;8.20;99.90
13998;DHT22;7074;51.508;7.018;2024-03-23T17:34:16;8.30;99.90
13998;DHT22;7074;51.508;7.018;2024-03-23T17:37:15;8.40;99.90
13998;DHT22;7074;51.508;7.018;2024-03-23T17:39:59;8.40;99.90
13998;DHT22;7074;51.508;7.018;2024-03-23T17:43:10;8.40;99.90
13998;DHT22;7074;51.508;7.018;2024-03-23T17:45:45;8.40;99.90
13998;DHT22;7074;51.508;7.018;2024-03-23T17:48:32;8.30;99.90
13998;DHT22;7074;51.508;7.018;2024-03-23T17:51:24;8.30;99.90
13998;DHT22;7074;51.508;7.018;2024-03-23T17:56:12;8.20;99.90
13998;DHT22;7074;51.508;7.018;2024-03-23T18:04:47;8.20;99.90
13998;DHT22;7074;51.508;7.018;2024-03-23T18:07:22;8.20;99.90
13998;DHT22;7074;51.508;7.018;2024-03-23T18:10:00;8.10;99.90
13998;DHT22;7074;51.508;7.018;2024-03-23T18:15:20;7.90;99.90
13998;DHT22;7074;51.508;7.018;2024-03-23T18:18:05;7.90;99.90
13998;DHT22;7074;51.508;7.018;2024-03-23T18:20:45;8.00;99.90
13998;DHT22;7074;51.508;7.018;2024-03-23T18:23:14;7.90;99.90
13998;DHT22;7074;51.508;7.018;2024-03-23T18:26:20;7.90;99.90
13998;DHT22;7074;51.508;7.018;2024-03-23T18:28:49;7.90;99.90
13998;DHT22;7074;51.508;7.018;2024-03-23T18:31:18;7.90;99.90
13998;DHT22;7074;51.508;7.018;2024-03-23T18:33:47;7.90;99.90
13998;DHT22;7074;51.508;7.018;2024-03-23T18:36:15;7.90;99.90
13998;DHT22;7074;51.508;7.018;2024-03-23T18:38:43;7.80;99.90
13998;DHT22;7074;51.508;7.018;2024-03-23T18:41:09;7.80;99.90
13998;DHT22;7074;51.508;7.018;2024-03-23T18:43:46;7.80;99.90
13998;DHT22;7074;51.508;7.018;2024-03-23T18:46:13;7.80;99.90
13998;DHT22;7074;51.508;7.018;2024-03-23T18:48:51;7.80;99.90
13998;DHT22;7074;51.508;7.018;2024-03-23T18:51:19;7.90;99.90
13998;DHT22;7074;51.508;7.018;2024-03-23T18:53:47;7.90;99.90
13998;DHT22;7074;51.508;7.018;2024-03-23T18:56:22;7.90;99.90
13998;DHT22;7074;51.508;7.018;2024-03-23T18:58:50;7.90;99.90
13998;DHT22;7074;51.508;7.018;2024-03-23T19:01:19;7.90;99.90
13998;DHT22;7074;51.508;7.018;2024-03-23T19:03:47;7.90;99.90
13998;DHT22;7074;51.508;7.018;2024-03-23T19:06:14;7.90;99.90
13998;DHT22;7074;51.508;7.018;2024-03-23T19:09:40;7.90;99.90
13998;DHT22;7074;51.508;7.018;2024-03-23T19:12:08;7.90;99.90
13998;DHT22;7074;51.508;7.018;2024-03-23T19:14:37;7.90;99.90
13998;DHT22;7074;51.508;7.018;2024-03-23T19:17:21;7.90;99.90
13998;DHT22;7074;51.508;7.018;2024-03-23T19:20:12;7.90;99.90
13998;DHT22;7074;51.508;7.018;2024-03-23T19:23:47;7.90;99.90
13998;DHT22;7074;51.508;7.018;2024-03-23T19:25:53;7.90;99.90
13998;DHT22;7074;51.508;7.018;2024-03-23T19:28:21;7.90;99.90
13998;DHT22;7074;51.508;7.018;2024-03-23T19:33:36;8.00;99.90
13998;DHT22;7074;51.508;7.018;2024-03-23T19:36:30;8.00;99.90
13998;DHT22;7074;51.508;7.018;2024-03-23T19:39:17;8.00;99.90
13998;DHT22;7074;51.508;7.018;2024-03-23T19:41:46;8.10;99.90
13998;DHT22;7074;51.508;7.018;2024-03-23T19:44:48;8.10;99.90
13998;DHT22;7074;51.508;7.018;2024-03-23T19:47:35;8.00;99.90
13998;DHT22;7074;51.508;7.018;2024-03-23T19:50:02;7.90;99.90
13998;DHT22;7074;51.508;7.018;2024-03-23T19:52:40;7.80;99.90
13998;DHT22;7074;51.508;7.018;2024-03-23T19:55:07;7.80;99.90
13998;DHT22;7074;51.508;7.018;2024-03-23T19:58:13;7.80;99.90
13998;DHT22;7074;51.508;7.018;2024-03-23T20:01:06;7.70;99.90
13998;DHT22;7074;51.508;7.018;2024-03-23T20:03:38;7.70;99.90
13998;DHT22;7074;51.508;7.018;2024-03-23T20:06:29;7.70;99.90
13998;DHT22;7074;51.508;7.018;2024-03-23T20:09:00;7.80;99.90
13998;DHT22;7074;51.508;7.018;2024-03-23T20:11:30;7.80;99.90
13998;DHT22;7074;51.508;7.018;2024-03-23T20:18:23;7.90;99.90
13998;DHT22;7074;51.508;7.018;2024-03-23T20:21:31;7.90;99.90
13998;DHT22;7074;51.508;7.018;2024-03-23T20:23:57;8.00;99.90
13998;DHT22;7074;51.508;7.018;2024-03-23T20:26:38;8.00;99.90
13998;DHT22;7074;51.508;7.018;2024-03-23T20:29:27;8.00;99.90
13998;DHT22;7074;51.508;7.018;2024-03-23T20:32:07;8.00;99.90
13998;DHT22;7074;51.508;7.018;2024-03-23T20:42:15;7.70;99.90
13998;DHT22;7074;51.508;7.018;2024-03-23T20:45:04;7.60;99.90
13998;DHT22;7074;51.508;7.018;2024-03-23T20:47:39;7.60;99.90
13998;DHT22;7074;51.508;7.018;2024-03-23T20:50:07;7.60;99.90
13998;DHT22;7074;51.508;7.018;2024-03-23T20:52:42;7.60;99.90
13998;DHT22;7074;51.508;7.018;2024-03-23T20:55:08;7.60;99.90
13998;DHT22;7074;51.508;7.018;2024-03-23T20:57:46;7.50;99.90
13998;DHT22;7074;51.508;7.018;2024-03-23T21:00:16;7.50;99.90
13998;DHT22;7074;51.508;7.018;2024-03-23T21:02:44;7.50;99.90
13998;DHT22;7074;51.508;7.018;2024-03-23T21:05:11;7.50;99.90
13998;DHT22;7074;51.508;7.018;2024-03-23T21:07:38;7.50;99.90
13998;DHT22;7074;51.508;7.018;2024-03-23T21:10:07;7.50;99.90
13998;DHT22;7074;51.508;7.018;2024-03-23T21:12:39;7.50;99.90
13998;DHT22;7074;51.508;7.018;2024-03-23T21:15:17;7.50;99.90
13998;DHT22;7074;51.508;7.018;2024-03-23T21:17:58;7.50;99.90
13998;DHT22;7074;51.508;7.018;2024-03-23T21:21:08;7.50;99.90
13998;DHT22;7074;51.508;7.018;2024-03-23T21:23:59;7.50;99.90
13998;DHT22;7074;51.508;7.018;2024-03-23T21:26:41;7.50;99.90
13998;DHT22;7074;51.508;7.018;2024-03-23T21:29:31;7.40;99.90
13998;DHT22;7074;51.508;7.018;2024-03-23T21:32:02;7.40;99.90
13998;DHT22;7074;51.508;7.018;2024-03-23T21:34:33;7.40;99.90
13998;DHT22;7074;51.508;7.018;2024-03-23T21:39:26;7.40;99.90
13998;DHT22;7074;51.508;7.018;2024-03-23T21:45:55;7.30;99.90
13998;DHT22;7074;51.508;7.018;2024-03-23T21:49:10;7.30;99.90
13998;DHT22;7074;51.508;7.018;2024-03-23T21:52:10;7.30;99.90
13998;DHT22;7074;51.508;7.018;2024-03-23T21:54:41;7.20;99.90
13998;DHT22;7074;51.508;7.018;2024-03-23T21:57:37;7.20;99.90
13998;DHT22;7074;51.508;7.018;2024-03-23T22:00:39;7.20;99.90
13998;DHT22;7074;51.508;7.018;2024-03-23T22:03:15;7.20;99.90
13998;DHT22;7074;51.508;7.018;2024-03-23T22:05:43;7.10;99.90
13998;DHT22;7074;51.508;7.018;2024-03-23T22:08:11;7.10;99.90
13998;DHT22;7074;51.508;7.018;2024-03-23T22:10:38;7.10;99.90
13998;DHT22;7074;51.508;7.018;2024-03-23T22:13:11;7.10;99.90
13998;DHT22;7074;51.508;7.018;2024-03-23T22:15:57;7.10;99.90
13998;DHT22;7074;51.508;7.018;2024-03-23T22:18:24;7.10;99.90
13998;DHT22;7074;51.508;7.018;2024-03-23T22:21:01;7.10;99.90
13998;DHT22;7074;51.508;7.018;2024-03-23T22:24:02;7.10;99.90
13998;DHT22;7074;51.508;7.018;2024-03-23T22:26:41;7.10;99.90
13998;DHT22;7074;51.508;7.018;2024-03-23T22:29:09;7.10;99.90
13998;DHT22;7074;51.508;7.018;2024-03-23T22:31:35;7.10;99.90
13998;DHT22;7074;51.508;7.018;2024-03-23T22:34:03;7.10;99.90
13998;DHT22;7074;51.508;7.018;2024-03-23T22:36:31;7.10;99.90
13998;DHT22;7074;51.508;7.018;2024-03-23T22:38:59;7.10;99.90
13998;DHT22;7074;51.508;7.018;2024-03-23T22:41:25;7.10;99.90
13998;DHT22;7074;51.508;7.018;2024-03-23T22:44:00;7.10;99.90
13998;DHT22;7074;51.508;7.018;2024-03-23T22:46:58;7.10;99.90
13998;DHT22;7074;51.508;7.018;2024-03-23T22:49:27;7.10;99.90
13998;DHT22;7074;51.508;7.018;2024-03-23T22:51:55;7.10;99.90
13998;DHT22;7074;51.508;7.018;2024-03-23T22:54:23;7.10;99.90
13998;DHT22;7074;51.508;7.018;2024-03-23T22:56:49;7.00;99.90
13998;DHT22;7074;51.508;7.018;2024-03-23T22:59:17;7.00;99.90
13998;DHT22;7074;51.508;7.018;2024-03-23T23:01:43;7.00;99.90
13998;DHT22;7074;51.508;7.018;2024-03-23T23:04:10;7.00;99.90
13998;DHT22;7074;51.508;7.018;2024-03-23T23:06:37;7.00;99.90
13998;DHT22;7074;51.508;7.018;2024-03-23T23:09:06;7.00;99.90
13998;DHT22;7074;51.508;7.018;2024-03-23T23:11:32;7.00;99.90
13998;DHT22;7074;51.508;7.018;2024-03-23T23:14:00;7.00;99.90
13998;DHT22;7074;51.508;7.018;2024-03-23T23:16:27;7.00;99.90
13998;DHT22;7074;51.508;7.018;2024-03-23T23:18:55;7.00;99.90
13998;DHT22;7074;51.508;7.018;2024-03-23T23:21:21;7.00;99.90
13998;DHT22;7074;51.508;7.018;2024-03-23T23:23:49;7.10;99.90
13998;DHT22;7074;51.508;7.018;2024-03-23T23:26:17;7.10;99.90
13998;DHT22;7074;51.508;7.018;2024-03-23T23:28:47;7.10;99.90
13998;DHT22;7074;51.508;7.018;2024-03-23T23:31:15;7.10;99.90
13998;DHT22;7074;51.508;7.018;2024-03-23T23:33:43;7.10;99.90
13998;DHT22;7074;51.508;7.018;2024-03-23T23:36:09;7.10;99.90
13998;DHT22;7074;51.508;7.018;2024-03-23T23:38:37;7.10;99.90
13998;DHT22;7074;51.508;7.018;2024-03-23T23:41:03;7.10;99.90
13998;DHT22;7074;51.508;7.018;2024-03-23T23:43:33;7.10;99.90
13998;DHT22;7074;51.508;7.018;2024-03-23T23:46:02;7.00;99.90
13998;DHT22;7074;51.508;7.018;2024-03-23T23:48:30;7.10;99.90
13998;DHT22;7074;51.508;7.018;2024-03-23T23:50:56;7.10;99.90
13998;DHT22;7074;51.508;7.018;2024-03-23T23:53:24;7.10;99.90
13998;DHT22;7074;51.508;7.018;2024-03-23T23:55:50;7.10;99.90
13998;DHT22;7074;51.508;7.018;2024-03-23T23:58:18;7.10;99.90
